createdAt,value
2019-04-07T00:00:50.562Z,-21599.17
2019-04-07T00:03:21.353Z,-21606.41
2019-04-07T00:05:49.706Z,-21595.13
2019-04-07T00:08:18.150Z,-21604.04
2019-04-07T00:10:46.855Z,-21594.85
2019-04-07T00:13:16.101Z,-21600.56
2019-04-07T00:15:45.208Z,-21588.45
2019-04-07T00:18:13.567Z,-21598.33
2019-04-07T00:20:42.112Z,-21593.04
2019-04-07T00:23:10.697Z,-21598.75
2019-04-07T00:25:41.987Z,-21596.39
2019-04-07T00:28:10.215Z,-21603.76
2019-04-07T00:30:38.469Z,-21595.69
2019-04-07T00:33:06.765Z,-21602.23
2019-04-07T00:35:35.015Z,-21589.98
2019-04-07T00:38:03.663Z,-21598.05
2019-04-07T00:40:31.901Z,-21597.36
2019-04-07T00:43:00.729Z,-21603.91
2019-04-07T00:45:29.497Z,-21607.24
2019-04-07T00:47:57.841Z,-21603.07
2019-04-07T00:50:28.385Z,-21600.56
2019-04-07T00:52:56.691Z,-21609.05
2019-04-07T00:55:25.425Z,-21595.55
2019-04-07T00:57:53.897Z,-21605.85
2019-04-07T01:00:24.422Z,-21593.88
2019-04-07T01:02:55.454Z,-21580.22
2019-04-07T01:05:34.756Z,-21588.03
2019-04-07T01:07:54.231Z,-21598.75
2019-04-07T01:10:22.578Z,-21601.25
2019-04-07T01:12:51.241Z,-21604.18
2019-04-07T01:15:19.779Z,-21596.39
2019-04-07T01:17:48.711Z,-21602.23
2019-04-07T01:20:17.196Z,-21598.61
2019-04-07T01:22:45.474Z,-21592.91
2019-04-07T01:25:14.169Z,-21596.52
2019-04-07T01:27:42.457Z,-21597.77
2019-04-07T01:30:10.888Z,-21593.32
2019-04-07T01:32:39.500Z,-21587.48
2019-04-07T01:35:07.968Z,-21560.85
2019-04-07T01:37:36.291Z,-21586.50
2019-04-07T01:40:06.335Z,-21588.45
2019-04-07T01:42:41.937Z,-21585.95
2019-04-07T01:45:18.075Z,-21586.36
2019-04-07T01:47:57.042Z,-21589.98
2019-04-07T01:50:36.288Z,-21593.18
2019-04-07T01:53:15.269Z,-21592.76
2019-04-07T01:55:45.548Z,-21574.09
2019-04-07T01:58:33.930Z,-21578.14
2019-04-07T02:01:06.563Z,-21567.96
2019-04-07T02:03:52.839Z,-21566.57
2019-04-07T02:06:32.070Z,-21571.03
2019-04-07T02:09:14.230Z,-21572.00
2019-04-07T02:11:47.155Z,-21578.27
2019-04-07T02:14:17.897Z,-21577.86
2019-04-07T02:16:47.802Z,-21584.12
2019-04-07T02:19:28.360Z,-21591.93
2019-04-07T02:22:14.585Z,-21593.04
2019-04-07T02:24:58.713Z,-21594.57
2019-04-07T02:27:29.410Z,-21587.61
2019-04-07T02:29:59.952Z,-21585.66
2019-04-07T02:32:35.763Z,-21576.60
2019-04-07T02:35:20.968Z,-21560.99
2019-04-07T02:37:54.697Z,-21579.39
2019-04-07T02:40:34.337Z,-21567.41
2019-04-07T02:43:05.249Z,-21571.87
2019-04-07T02:45:41.245Z,-21566.99
2019-04-07T02:48:11.231Z,-21551.78
2019-04-07T02:50:41.148Z,-21568.66
2019-04-07T02:53:23.167Z,-21574.65
2019-04-07T02:55:53.656Z,-21559.87
2019-04-07T02:58:27.168Z,-21569.50
2019-04-07T03:01:09.641Z,-21570.05
2019-04-07T03:03:40.521Z,-21565.03
2019-04-07T03:06:34.355Z,-21562.66
2019-04-07T03:08:59.969Z,-21566.71
2019-04-07T03:11:32.577Z,-21566.99
2019-04-07T03:14:05.676Z,-21581.90
2019-04-07T03:16:39.345Z,-21566.85
2019-04-07T03:19:22.183Z,-21572.14
2019-04-07T03:21:52.501Z,-21570.05
2019-04-07T03:24:34.891Z,-21566.71
2019-04-07T03:27:08.079Z,-21573.82
2019-04-07T03:29:43.783Z,-21579.67
2019-04-07T03:32:17.013Z,-21559.87
2019-04-07T03:35:03.214Z,-21562.24
2019-04-07T03:37:42.597Z,-21566.01
2019-04-07T03:40:14.493Z,-21543.68
2019-04-07T03:42:44.418Z,-21543.82
2019-04-07T03:45:20.314Z,-21545.50
2019-04-07T03:47:50.542Z,-21544.10
2019-04-07T03:50:29.676Z,-21546.89
2019-04-07T03:53:15.847Z,-21561.27
2019-04-07T03:55:49.310Z,-21557.08
2019-04-07T03:58:36.147Z,-21535.86
2019-04-07T04:01:13.977Z,-21547.59
2019-04-07T04:04:00.704Z,-21564.34
2019-04-07T04:06:30.797Z,-21560.99
2019-04-07T04:09:15.988Z,-21555.69
2019-04-07T04:12:03.046Z,-21558.48
2019-04-07T04:14:43.060Z,-21558.06
2019-04-07T04:17:11.607Z,-21547.32
2019-04-07T04:19:40.664Z,-21546.75
2019-04-07T04:22:09.209Z,-21556.25
2019-04-07T04:24:38.129Z,-21557.92
2019-04-07T04:27:06.808Z,-21555.27
2019-04-07T04:29:35.310Z,-21557.08
2019-04-07T04:32:03.584Z,-21555.69
2019-04-07T04:34:32.848Z,-21551.78
2019-04-07T04:37:01.788Z,-21556.94
2019-04-07T04:39:30.047Z,-21554.85
2019-04-07T04:41:58.317Z,-21551.78
2019-04-07T04:44:26.592Z,-21551.08
2019-04-07T04:46:54.876Z,-21538.37
2019-04-07T04:49:23.375Z,-21542.15
2019-04-07T04:51:51.851Z,-21530.56
2019-04-07T04:54:21.092Z,-21544.10
2019-04-07T04:56:50.109Z,-21551.78
2019-04-07T04:59:18.799Z,-21547.45
2019-04-07T05:01:47.806Z,-21544.52
2019-04-07T05:04:16.139Z,-21556.39
2019-04-07T05:06:44.587Z,-21558.48
2019-04-07T05:09:13.351Z,-21530.28
2019-04-07T05:11:41.721Z,-21541.87
2019-04-07T05:14:10.425Z,-21541.31
2019-04-07T05:16:38.838Z,-21540.33
2019-04-07T05:19:07.169Z,-21545.50
2019-04-07T05:21:36.165Z,-21516.86
2019-04-07T05:24:04.574Z,-21540.19
2019-04-07T05:26:32.846Z,-21526.64
2019-04-07T05:29:01.473Z,-21534.33
2019-04-07T05:31:30.509Z,-21529.58
2019-04-07T05:33:58.807Z,-21553.18
2019-04-07T05:36:27.697Z,-21548.29
2019-04-07T05:38:56.300Z,-21538.24
2019-04-07T05:41:24.666Z,-21526.78
2019-04-07T05:43:53.582Z,-21530.56
2019-04-07T05:46:21.924Z,-21537.26
2019-04-07T05:48:52.558Z,-21534.89
2019-04-07T05:51:20.926Z,-21549.69
2019-04-07T05:53:49.351Z,-21529.58
2019-04-07T05:56:17.699Z,-21531.95
2019-04-07T05:58:46.256Z,-21536.14
2019-04-07T06:01:17.064Z,-21538.24
2019-04-07T06:03:44.711Z,-21541.87
2019-04-07T06:06:13.482Z,-21537.82
2019-04-07T06:08:42.246Z,-21552.62
2019-04-07T06:11:10.475Z,-21549.83
2019-04-07T06:13:39.103Z,-21553.18
2019-04-07T06:16:08.009Z,-21547.03
2019-04-07T06:18:36.885Z,-21548.43
2019-04-07T06:21:06.019Z,-21531.68
2019-04-07T06:23:35.351Z,-21572.43
2019-04-07T06:26:08.909Z,-21552.62
2019-04-07T06:28:33.863Z,-21568.94
2019-04-07T06:31:03.114Z,-21568.38
2019-04-07T06:33:32.052Z,-21574.93
2019-04-07T06:36:00.459Z,-21574.65
2019-04-07T06:38:33.100Z,-21577.71
2019-04-07T06:41:01.842Z,-21544.94
2019-04-07T06:43:28.785Z,-21554.16
2019-04-07T06:46:13.667Z,-21567.27
2019-04-07T06:49:01.624Z,-21573.54
2019-04-07T06:51:34.767Z,-21575.07
2019-04-07T06:54:04.826Z,-21568.94
2019-04-07T06:56:50.008Z,-21578.14
2019-04-07T06:59:26.179Z,-21584.55
2019-04-07T07:02:12.149Z,-21590.12
2019-04-07T07:04:45.807Z,-21587.89
2019-04-07T07:07:22.602Z,-21591.09
2019-04-07T07:09:59.695Z,-21607.10
2019-04-07T07:12:38.386Z,-21589.28
2019-04-07T07:15:04.716Z,-21605.71
2019-04-07T07:17:37.716Z,-21611.97
2019-04-07T07:20:14.802Z,-21600.56
2019-04-07T07:22:47.575Z,-21583.57
2019-04-07T07:25:14.774Z,-21590.68
2019-04-07T07:27:43.136Z,-21591.38
2019-04-07T07:30:12.109Z,-21609.19
2019-04-07T07:32:41.860Z,-21606.41
2019-04-07T07:35:13.591Z,-21612.95
2019-04-07T07:37:40.240Z,-21613.22
2019-04-07T07:40:09.947Z,-21619.90
2019-04-07T07:42:38.362Z,-21603.76
2019-04-07T07:45:12.646Z,-21579.81
2019-04-07T07:47:40.215Z,-21584.41
2019-04-07T07:50:09.073Z,-21616.84
2019-04-07T07:52:37.669Z,-21590.12
2019-04-07T07:55:07.045Z,-21612.39
2019-04-07T07:57:35.567Z,-21622.54
2019-04-07T08:00:07.254Z,-21631.16
2019-04-07T08:02:36.449Z,-21617.25
2019-04-07T08:05:09.359Z,-21637.41
2019-04-07T08:07:47.245Z,-21633.66
2019-04-07T08:10:14.963Z,-21628.10
2019-04-07T08:12:43.766Z,-21635.32
2019-04-07T08:15:12.685Z,-21645.88
2019-04-07T08:17:41.007Z,-21638.53
2019-04-07T08:20:11.322Z,-21645.19
2019-04-07T08:22:43.028Z,-21646.43
2019-04-07T08:25:09.733Z,-21644.22
2019-04-07T08:27:38.692Z,-21637.96
2019-04-07T08:30:11.854Z,-21654.08
2019-04-07T08:32:37.443Z,-21630.18
2019-04-07T08:35:06.969Z,-21632.55
2019-04-07T08:37:36.450Z,-21651.29
2019-04-07T08:40:07.723Z,-21661.15
2019-04-07T08:42:36.919Z,-21668.22
2019-04-07T08:45:06.531Z,-21662.68
2019-04-07T08:47:35.551Z,-21651.57
2019-04-07T08:50:07.204Z,-21625.87
2019-04-07T08:52:38.449Z,-21640.05
2019-04-07T08:55:06.150Z,-21629.77
2019-04-07T08:57:35.813Z,-21632.13
2019-04-07T09:00:15.397Z,-21638.66
2019-04-07T09:02:40.458Z,-21638.94
2019-04-07T09:05:08.784Z,-21628.10
2019-04-07T09:07:37.855Z,-21661.29
2019-04-07T09:10:07.851Z,-21662.54
2019-04-07T09:12:36.150Z,-21661.15
2019-04-07T09:15:05.375Z,-21668.22
2019-04-07T09:17:43.384Z,-21675.16
2019-04-07T09:20:25.625Z,-21670.03
2019-04-07T09:22:56.991Z,-21654.21
2019-04-07T09:25:31.970Z,-21654.91
2019-04-07T09:28:04.108Z,-21670.30
2019-04-07T09:30:52.480Z,-21679.45
2019-04-07T09:33:28.644Z,-21675.16
2019-04-07T09:36:13.874Z,-21691.37
2019-04-07T09:38:43.825Z,-21675.02
2019-04-07T09:41:30.654Z,-21679.45
2019-04-07T09:44:17.400Z,-21693.17
2019-04-07T09:47:05.330Z,-21706.45
2019-04-07T09:49:37.995Z,-21703.83
2019-04-07T09:52:24.451Z,-21692.06
2019-04-07T09:55:01.053Z,-21673.91
2019-04-07T09:57:40.978Z,-21685.69
2019-04-07T10:00:21.620Z,-21675.43
2019-04-07T10:02:52.992Z,-21685.13
2019-04-07T10:05:35.138Z,-21698.84
2019-04-07T10:08:12.501Z,-21724.71
2019-04-07T10:11:00.680Z,-21729.41
2019-04-07T10:13:39.849Z,-21725.27
2019-04-07T10:16:16.486Z,-21711.16
2019-04-07T10:19:01.888Z,-21723.33
2019-04-07T10:21:41.751Z,-21717.11
2019-04-07T10:24:11.887Z,-21703.96
2019-04-07T10:26:56.750Z,-21705.21
2019-04-07T10:29:36.065Z,-21693.44
2019-04-07T10:32:08.940Z,-21711.71
2019-04-07T10:34:59.277Z,-21714.07
2019-04-07T10:37:30.240Z,-21716.70
2019-04-07T10:40:05.443Z,-21745.02
2019-04-07T10:42:47.294Z,-21736.18
2019-04-07T10:45:29.668Z,-21695.80
2019-04-07T10:48:02.494Z,-21726.93
2019-04-07T10:50:46.916Z,-21731.49
2019-04-07T10:53:17.107Z,-21728.86
2019-04-07T10:55:49.780Z,-21750.41
2019-04-07T10:58:31.357Z,-21731.91
2019-04-07T11:01:07.175Z,-21717.95
2019-04-07T11:03:54.777Z,-21758.68
2019-04-07T11:06:28.393Z,-21765.71
2019-04-07T11:08:59.008Z,-21772.89
2019-04-07T11:11:47.838Z,-21748.34
2019-04-07T11:14:35.080Z,-21763.10
2019-04-07T11:17:08.058Z,-21755.51
2019-04-07T11:19:54.765Z,-21761.72
2019-04-07T11:22:40.881Z,-21765.16
2019-04-07T11:25:29.652Z,-21780.46
2019-04-07T11:28:15.371Z,-21756.06
2019-04-07T11:30:50.980Z,-21745.16
2019-04-07T11:33:20.984Z,-21790.25
2019-04-07T11:35:51.072Z,-21803.87
2019-04-07T11:38:29.825Z,-21793.69
2019-04-07T11:41:15.729Z,-21799.74
2019-04-07T11:43:45.709Z,-21816.94
2019-04-07T11:46:18.766Z,-21822.85
2019-04-07T11:48:51.460Z,-21842.07
2019-04-07T11:51:21.423Z,-21889.08
2019-04-07T11:53:51.342Z,-21869.91
2019-04-07T11:56:27.235Z,-21848.11
2019-04-07T11:59:12.404Z,-21892.64
2019-04-07T12:01:49.880Z,-21910.42
2019-04-07T12:04:22.632Z,-21931.31
2019-04-07T12:07:08.940Z,-21890.86
2019-04-07T12:09:39.635Z,-21920.39
2019-04-07T12:12:26.561Z,-21967.57
2019-04-07T12:14:56.687Z,-21951.22
2019-04-07T12:17:26.616Z,-22004.82
2019-04-07T12:20:09.594Z,-22031.69
2019-04-07T12:22:55.375Z,-21946.99
2019-04-07T12:25:29.330Z,-21956.26
2019-04-07T12:28:00.091Z,-21918.89
2019-04-07T12:30:33.730Z,-21985.79
2019-04-07T12:33:07.245Z,-21980.09
2019-04-07T12:35:44.834Z,-22019.89
2019-04-07T12:38:20.943Z,-21973.01
2019-04-07T12:41:13.408Z,-21982.67
2019-04-07T12:43:36.326Z,-22035.48
2019-04-07T12:46:07.113Z,-22069.18
2019-04-07T12:52:33.408Z,-22009.16
2019-04-07T12:55:03.610Z,-22004.28
2019-04-07T12:57:50.051Z,-22007.54
2019-04-07T13:00:26.121Z,-22044.29
2019-04-07T13:03:13.911Z,-22049.96
2019-04-07T13:06:00.659Z,-22067.29
2019-04-07T13:08:32.160Z,-22016.90
2019-04-07T13:11:26.542Z,-22010.39
2019-04-07T13:13:48.882Z,-22072.69
2019-04-07T13:16:34.897Z,-22060.80
2019-04-07T13:19:09.309Z,-22062.55
2019-04-07T13:21:39.327Z,-22060.25
2019-04-07T13:24:12.960Z,-22081.75
2019-04-07T13:26:43.432Z,-22076.61
2019-04-07T13:29:29.115Z,-22039.00
2019-04-07T13:32:08.866Z,-22078.23
2019-04-07T13:34:38.792Z,-22040.90
2019-04-07T13:37:17.492Z,-22067.15
2019-04-07T13:39:50.130Z,-22059.04
2019-04-07T13:42:20.829Z,-22022.33
2019-04-07T13:45:10.177Z,-22023.55
2019-04-07T13:47:43.649Z,-22024.50
2019-04-07T13:50:31.969Z,-22063.91
2019-04-07T13:53:16.520Z,-22112.37
2019-04-07T13:56:05.056Z,-22041.57
2019-04-07T13:58:51.977Z,-22003.60
2019-04-07T14:01:22.234Z,-22010.12
2019-04-07T14:04:01.287Z,-21985.93
2019-04-07T14:06:33.980Z,-22039.41
2019-04-07T14:09:10.417Z,-22039.41
2019-04-07T14:12:00.290Z,-22048.75
2019-04-07T14:14:26.769Z,-21948.90
2019-04-07T14:17:05.419Z,-22046.99
2019-04-07T14:19:39.722Z,-22038.59
2019-04-07T14:22:26.615Z,-22051.05
2019-04-07T14:24:56.955Z,-22059.58
2019-04-07T14:27:32.858Z,-22059.58
2019-04-07T14:30:02.933Z,-22086.20
2019-04-07T14:32:50.704Z,-22041.16
2019-04-07T14:35:39.127Z,-22041.98
2019-04-07T14:38:18.901Z,-22015.95
2019-04-07T14:40:48.957Z,-22021.92
2019-04-07T14:43:35.383Z,-22068.10
2019-04-07T14:46:07.625Z,-22055.25
2019-04-07T14:48:46.551Z,-22081.75
2019-04-07T14:51:16.457Z,-22076.21
2019-04-07T14:53:53.008Z,-22087.01
2019-04-07T14:56:39.024Z,-22073.64
2019-04-07T14:59:09.284Z,-22059.44
2019-04-07T15:01:42.226Z,-22077.15
2019-04-07T15:04:10.861Z,-22031.55
2019-04-07T15:06:39.484Z,-22080.53
2019-04-07T15:09:10.186Z,-22144.81
2019-04-07T15:11:40.166Z,-22077.56
2019-04-07T15:14:08.439Z,-22082.55
2019-04-07T15:16:36.835Z,-22017.45
2019-04-07T15:19:05.130Z,-22101.58
2019-04-07T15:21:33.401Z,-22001.56
2019-04-07T15:24:04.031Z,-22035.61
2019-04-07T15:26:32.515Z,-22092.55
2019-04-07T15:29:05.312Z,-22094.71
2019-04-07T15:31:30.949Z,-22124.09
2019-04-07T15:34:00.833Z,-22123.28
2019-04-07T15:36:29.987Z,-22141.58
2019-04-07T15:38:59.502Z,-22141.58
2019-04-07T15:41:27.873Z,-22039.00
2019-04-07T15:43:56.164Z,-22110.21
2019-04-07T15:46:24.459Z,-22167.91
2019-04-07T15:48:55.583Z,-22170.46
2019-04-07T15:51:22.995Z,-22151.53
2019-04-07T15:53:52.120Z,-22126.65
2019-04-07T15:56:20.884Z,-22112.50
2019-04-07T15:58:49.519Z,-22078.10
2019-04-07T16:01:17.768Z,-22101.04
2019-04-07T16:03:50.523Z,-22124.49
2019-04-07T16:06:16.429Z,-22068.23
2019-04-07T16:08:45.764Z,-22064.32
2019-04-07T16:11:16.527Z,-22046.99
2019-04-07T16:13:44.403Z,-22080.39
2019-04-07T16:16:13.484Z,-22035.07
2019-04-07T16:18:43.418Z,-22035.07
2019-04-07T16:21:12.468Z,-22041.57
2019-04-07T16:23:40.808Z,-22030.19
2019-04-07T16:26:10.621Z,-21999.26
2019-04-07T16:28:41.381Z,-22031.41
2019-04-07T16:31:10.062Z,-22038.05
2019-04-07T16:33:38.806Z,-21971.65
2019-04-07T16:36:08.656Z,-21910.42
2019-04-07T16:38:37.125Z,-21901.39
2019-04-07T16:41:06.459Z,-21870.32
2019-04-07T16:43:37.678Z,-21858.68
2019-04-07T16:46:05.605Z,-21828.06
2019-04-07T16:48:40.048Z,-21847.43
2019-04-07T16:51:07.220Z,-21867.99
2019-04-07T16:53:37.961Z,-21834.39
2019-04-07T16:56:05.600Z,-21834.52
2019-04-07T16:58:37.197Z,-21844.68
2019-04-07T17:01:04.634Z,-21845.50
2019-04-07T17:03:32.965Z,-21827.93
2019-04-07T17:06:02.043Z,-21841.66
2019-04-07T17:08:31.807Z,-21819.55
2019-04-07T17:11:05.204Z,-21823.95
2019-04-07T17:13:37.440Z,-21817.49
2019-04-07T17:16:00.462Z,-21781.98
2019-04-07T17:18:36.896Z,-21808.69
2019-04-07T17:21:09.485Z,-21787.90
2019-04-07T17:23:39.716Z,-21823.53
2019-04-07T17:26:08.291Z,-21827.52
2019-04-07T17:28:36.640Z,-21814.32
2019-04-07T17:31:05.858Z,-21796.85
2019-04-07T17:33:36.868Z,-21815.56
2019-04-07T17:36:04.484Z,-21801.25
2019-04-07T17:38:52.715Z,-21804.70
2019-04-07T17:41:21.421Z,-21783.36
2019-04-07T17:44:13.085Z,-21792.31
2019-04-07T17:46:41.471Z,-21808.55
2019-04-07T17:49:30.880Z,-21820.23
2019-04-07T17:52:02.051Z,-21814.87
2019-04-07T17:54:35.061Z,-21801.67
2019-04-07T17:57:12.008Z,-21795.07
2019-04-07T17:59:48.439Z,-21805.53
2019-04-07T18:02:43.157Z,-21804.98
2019-04-07T18:05:10.629Z,-21791.90
2019-04-07T18:07:42.856Z,-21803.19
2019-04-07T18:10:13.468Z,-21788.45
2019-04-07T18:12:49.914Z,-21792.31
2019-04-07T18:15:29.486Z,-21786.25
2019-04-07T18:18:18.781Z,-21807.86
2019-04-07T18:20:54.073Z,-21807.59
2019-04-07T18:23:42.710Z,-21813.63
2019-04-07T18:26:18.693Z,-21795.34
2019-04-07T18:28:54.062Z,-21809.79
2019-04-07T18:31:40.263Z,-21811.02
2019-04-07T18:34:27.442Z,-21783.08
2019-04-07T18:37:07.233Z,-21802.36
2019-04-07T18:39:39.842Z,-21802.77
2019-04-07T18:42:17.806Z,-21804.84
2019-04-07T18:44:50.938Z,-21768.75
2019-04-07T18:47:23.874Z,-21760.20
2019-04-07T18:50:07.066Z,-21770.68
2019-04-07T18:52:33.588Z,-21748.06
2019-04-07T18:55:13.855Z,-21776.20
2019-04-07T18:58:00.725Z,-21792.31
2019-04-07T19:00:48.148Z,-21778.95
2019-04-07T19:03:23.781Z,-21789.97
2019-04-07T19:05:54.227Z,-21786.25
2019-04-07T19:08:30.099Z,-21782.12
2019-04-07T19:11:10.673Z,-21781.02
2019-04-07T19:14:01.279Z,-21709.64
2019-04-07T19:16:22.040Z,-21720.29
2019-04-07T19:19:07.090Z,-21704.38
2019-04-07T19:21:49.587Z,-21737.70
2019-04-07T19:24:22.789Z,-21660.04
2019-04-07T19:26:56.218Z,-21713.23
2019-04-07T19:29:34.430Z,-21722.36
2019-04-07T19:32:04.318Z,-21754.27
2019-04-07T19:34:50.590Z,-21716.28
2019-04-07T19:37:22.943Z,-21685.41
2019-04-07T19:39:57.527Z,-21690.13
2019-04-07T19:42:34.990Z,-21694.41
2019-04-07T19:45:07.115Z,-21720.02
2019-04-07T19:47:37.200Z,-21726.37
2019-04-07T19:50:12.490Z,-21743.50
2019-04-07T19:52:57.116Z,-21726.23
2019-04-07T19:55:38.881Z,-21697.87
2019-04-07T19:58:14.702Z,-21705.08
2019-04-07T20:00:58.877Z,-21702.03
2019-04-07T20:03:39.182Z,-21663.79
2019-04-07T20:06:22.210Z,-21671.55
2019-04-07T20:08:49.452Z,-21705.08
2019-04-07T20:11:28.838Z,-21706.18
2019-04-07T20:14:14.430Z,-21663.09
2019-04-07T20:16:55.826Z,-21672.53
2019-04-07T20:19:42.717Z,-21680.14
2019-04-07T20:22:28.832Z,-21694.41
2019-04-07T20:24:58.767Z,-21683.47
2019-04-07T20:27:29.734Z,-21690.54
2019-04-07T20:30:11.257Z,-21683.88
2019-04-07T20:32:40.382Z,-21686.93
2019-04-07T20:35:16.781Z,-21612.95
2019-04-07T20:37:58.372Z,-21656.02
2019-04-07T20:40:29.515Z,-21674.46
2019-04-07T20:43:05.437Z,-21686.93
2019-04-07T20:45:47.440Z,-21642.27
2019-04-07T20:48:19.280Z,-21632.55
2019-04-07T20:50:52.848Z,-21676.40
2019-04-07T20:53:35.186Z,-21664.48
2019-04-07T20:56:09.337Z,-21633.38
2019-04-07T20:58:57.671Z,-21592.21
2019-04-07T21:01:33.544Z,-21616.98
2019-04-07T21:04:04.342Z,-21620.73
2019-04-07T21:06:37.830Z,-21637.00
2019-04-07T21:09:11.866Z,-21600.70
2019-04-07T21:11:58.720Z,-21598.05
2019-04-07T21:14:37.605Z,-21607.10
2019-04-07T21:17:22.660Z,-21655.46
2019-04-07T21:19:52.691Z,-21610.72
2019-04-07T21:22:22.855Z,-21626.71
2019-04-07T21:25:08.175Z,-21611.97
2019-04-07T21:27:40.900Z,-21625.87
2019-04-07T21:30:15.102Z,-21615.86
2019-04-07T21:32:48.537Z,-21616.28
2019-04-07T21:35:19.832Z,-21625.05
2019-04-07T21:38:06.114Z,-21611.55
2019-04-07T21:40:53.882Z,-21577.71
2019-04-07T21:43:28.066Z,-21589.43
2019-04-07T21:46:07.940Z,-21591.65
2019-04-07T21:48:58.045Z,-21619.63
2019-04-07T21:51:39.875Z,-21600.56
2019-04-07T21:54:15.985Z,-21604.46
2019-04-07T21:56:51.834Z,-21621.85
2019-04-07T21:59:31.131Z,-21598.05
2019-04-07T22:02:02.796Z,-21586.92
2019-04-07T22:04:36.183Z,-21580.92
2019-04-07T22:07:09.100Z,-21593.74
2019-04-07T22:09:48.791Z,-21611.83
2019-04-07T22:12:15.414Z,-21579.25
2019-04-07T22:14:45.493Z,-21595.82
2019-04-07T22:17:13.730Z,-21603.76
2019-04-07T22:19:45.219Z,-21584.69
2019-04-07T22:22:11.972Z,-21628.66
2019-04-07T22:24:40.242Z,-21620.32
2019-04-07T22:27:09.124Z,-21589.84
2019-04-07T22:29:37.551Z,-21562.10
2019-04-07T22:32:05.963Z,-21582.88
2019-04-07T22:34:34.235Z,-21534.61
2019-04-07T22:37:02.627Z,-21532.23
2019-04-07T22:39:32.016Z,-21576.74
2019-04-07T22:42:00.509Z,-21597.64
2019-04-07T22:44:29.349Z,-21552.20
2019-04-07T22:46:58.610Z,-21555.96
2019-04-07T22:49:31.492Z,-21568.52
2019-04-07T22:51:57.691Z,-21576.05
2019-04-07T22:54:29.494Z,-21558.34
2019-04-07T22:56:56.462Z,-21591.93
2019-04-07T22:59:24.842Z,-21577.71
2019-04-07T23:01:53.563Z,-21580.64
2019-04-07T23:04:22.357Z,-21550.25
2019-04-07T23:06:50.762Z,-21540.19
2019-04-07T23:09:19.044Z,-21562.52
2019-04-07T23:11:48.218Z,-21570.34
2019-04-07T23:14:16.566Z,-21569.78
2019-04-07T23:16:44.841Z,-21583.85
2019-04-07T23:19:13.113Z,-21568.52
2019-04-07T23:21:41.777Z,-21574.23
2019-04-07T23:24:10.868Z,-21543.13
2019-04-07T23:26:39.183Z,-21601.54
2019-04-07T23:29:07.915Z,-21542.15
2019-04-07T23:31:36.977Z,-21581.75
2019-04-07T23:34:08.790Z,-21561.27
2019-04-07T23:36:37.094Z,-21546.89
2019-04-07T23:39:06.632Z,-21570.75
2019-04-07T23:41:36.062Z,-21587.48
2019-04-07T23:44:05.847Z,-21569.36
2019-04-07T23:46:35.805Z,-21561.68
2019-04-07T23:49:04.400Z,-21592.21
2019-04-07T23:51:32.676Z,-21622.40
2019-04-07T23:54:11.447Z,-21602.51
2019-04-07T23:56:41.529Z,-21621.43
2019-04-07T23:59:10.589Z,-21625.60
